Terminal Aerodrome Forecast
Issued by NWS

Home | Current Version | Previous Version | Text Only | Print | Product List | Glossary On
Versions: 1 2 3 4 5 6 7 8 9 10 11 12 13 14 15 16 17 18 19 20 21 22 23 24 25 26 27 28 29 30 31 32 33 34 35
000
FTUS45 KGJT 251135
TAFRIL
TAF
KRIL 251135Z 2512/2612 09005KT P6SM BKN070 OVC090
     FM251400 25007KT P6SM -SHRA BKN030 OVC045
     FM251800 25008G15KT P6SM VCSH SCT030 OVC050
      TEMPO 2520/2524 VRB15G30KT 5SM -TSRA SCT030 BKN040CB
     FM260400 VRB03KT 5SM -RA BKN030=

USA.gov is the U.S. government's official web portal to all federal, state and local government web resources and services.